Time;durP1;ratioP1;P1;durP2;ratioP2;P2;SDS_P1;SDS_P2;PMS_P1;PMS_P2;Temp;Humidity;BMP_temperature;BMP_pressure;BME280_temperature;BME280_humidity;BME280_pressure;Samples;Min_cycle;Max_cycle;Signal;HPM_P1;HPM_P2
2022/04/25 00:01:32;;;;;;;14.75;7.88;;;9.40;99.90;;;;;;5050110;28;20056;-74
2022/04/25 00:03:57;;;;;;;13.82;7.05;;;9.40;99.90;;;;;;5029814;28;20407;-74
2022/04/25 00:06:23;;;;;;;17.23;7.78;;;9.50;99.90;;;;;;5029562;28;20347;-74
2022/04/25 00:08:49;;;;;;;15.77;7.53;;;9.50;99.90;;;;;;5044816;28;20049;-74
2022/04/25 00:11:15;;;;;;;13.27;6.97;;;9.50;99.90;;;;;;5039278;28;20127;-73
2022/04/25 00:13:40;;;;;;;13.98;6.85;;;9.50;99.90;;;;;;5060019;28;20079;-74
2022/04/25 00:16:09;;;;;;;15.57;6.75;;;9.50;99.90;;;;;;5061599;28;20044;-75
2022/04/25 00:18:35;;;;;;;12.63;6.72;;;9.50;99.90;;;;;;5043365;28;20376;-75
2022/04/25 00:21:00;;;;;;;13.70;7.35;;;9.60;99.90;;;;;;5032370;28;20470;-75
2022/04/25 00:23:26;;;;;;;12.10;6.90;;;9.60;99.90;;;;;;5068778;28;20110;-75
2022/04/25 00:25:52;;;;;;;14.68;7.68;;;9.60;99.90;;;;;;5038690;28;20071;-75
2022/04/25 00:28:17;;;;;;;13.43;6.60;;;9.60;99.90;;;;;;5070233;28;20086;-75
2022/04/25 00:30:43;;;;;;;16.63;7.75;;;9.60;99.90;;;;;;5068457;28;20108;-75
2022/04/25 00:33:08;;;;;;;10.48;7.20;;;9.60;99.90;;;;;;5055432;28;20058;-75
2022/04/25 00:35:34;;;;;;;13.60;7.15;;;9.70;99.90;;;;;;5058125;28;20489;-75
2022/04/25 00:38:00;;;;;;;16.38;7.95;;;9.70;99.90;;;;;;5058132;28;20029;-75
2022/04/25 00:40:26;;;;;;;16.10;8.07;;;9.70;99.90;;;;;;5066053;28;20067;-75
2022/04/25 00:42:51;;;;;;;14.07;7.45;;;9.70;99.90;;;;;;5044118;28;20044;-75
2022/04/25 00:45:18;;;;;;;16.27;7.97;;;9.70;99.90;;;;;;5063647;28;20045;-75
2022/04/25 00:47:45;;;;;;;14.35;8.30;;;9.70;99.90;;;;;;5048863;28;20044;-75
2022/04/25 00:50:11;;;;;;;16.10;8.07;;;9.70;99.90;;;;;;5064143;28;20052;-76
2022/04/25 00:52:38;;;;;;;14.68;8.68;;;9.70;99.90;;;;;;5062682;28;20041;-75
2022/04/25 00:55:07;;;;;;;20.45;8.73;;;9.70;99.90;;;;;;5063927;28;20424;-75
2022/04/25 00:57:33;;;;;;;12.43;7.35;;;9.70;99.90;;;;;;5046999;28;20033;-75
2022/04/25 01:00:00;;;;;;;12.95;8.27;;;9.70;99.90;;;;;;5039548;28;20400;-75
2022/04/25 01:02:27;;;;;;;17.02;8.57;;;9.70;99.90;;;;;;5062018;28;20518;-75
2022/04/25 01:04:57;;;;;;;12.98;7.90;;;9.70;99.90;;;;;;5046977;28;20396;-75
2022/04/25 01:07:23;;;;;;;14.80;8.13;;;9.70;99.90;;;;;;5056757;28;20085;-75
2022/04/25 01:09:49;;;;;;;10.88;7.32;;;9.80;99.90;;;;;;5050442;28;20056;-75
2022/04/25 01:12:15;;;;;;;19.00;9.05;;;9.70;99.90;;;;;;5046579;28;20056;-75
2022/04/25 01:14:40;;;;;;;13.50;8.45;;;9.80;99.90;;;;;;5046430;28;20053;-75
2022/04/25 01:17:07;;;;;;;14.68;8.75;;;9.70;99.90;;;;;;5067312;28;20044;-75
2022/04/25 01:19:33;;;;;;;13.77;8.73;;;9.80;99.90;;;;;;5062791;28;20111;-75
2022/04/25 01:22:06;;;;;;;15.05;9.48;;;9.80;99.90;;;;;;5049651;28;20127;-75
2022/04/25 01:27:18;;;;;;;18.70;8.25;;;9.80;99.90;;;;;;5061549;28;20040;-75
2022/04/25 01:29:54;;;;;;;12.55;8.77;;;9.70;99.90;;;;;;5051215;28;20045;-75
2022/04/25 01:32:22;;;;;;;17.77;8.98;;;9.70;99.90;;;;;;5052287;28;20055;-75
2022/04/25 01:34:47;;;;;;;16.45;7.93;;;9.60;99.90;;;;;;5065333;28;20072;-74
2022/04/25 01:37:16;;;;;;;15.77;8.57;;;9.60;99.90;;;;;;5063600;28;20075;-74
2022/04/25 01:39:52;;;;;;;17.23;9.10;;;9.50;99.90;;;;;;5063901;28;20036;-74
2022/04/25 01:42:19;;;;;;;18.05;8.82;;;9.50;99.90;;;;;;5033723;28;20051;-74
2022/04/25 01:44:45;;;;;;;15.93;8.80;;;9.50;99.90;;;;;;5056303;28;20049;-74
2022/04/25 01:47:11;;;;;;;17.52;8.82;;;9.40;99.90;;;;;;5055257;28;20041;-74
2022/04/25 01:49:37;;;;;;;12.75;8.40;;;9.40;99.90;;;;;;5031548;28;20049;-77
2022/04/25 01:52:08;;;;;;;15.57;8.73;;;9.40;99.90;;;;;;5046404;28;20045;-74
2022/04/25 01:54:34;;;;;;;16.80;9.20;;;9.40;99.90;;;;;;5048163;28;20047;-74
2022/04/25 01:57:02;;;;;;;18.65;9.32;;;9.40;99.90;;;;;;5056281;28;20368;-74
2022/04/25 01:59:30;;;;;;;14.07;8.85;;;9.40;99.90;;;;;;5063384;28;20086;-74
2022/04/25 02:01:56;;;;;;;16.52;8.73;;;9.40;99.90;;;;;;5057559;28;20165;-74
2022/04/25 02:04:22;;;;;;;16.98;9.02;;;9.40;99.90;;;;;;5065011;28;20506;-74
2022/04/25 02:06:48;;;;;;;14.93;8.70;;;9.30;99.90;;;;;;5035439;28;20400;-74
2022/04/25 02:09:14;;;;;;;14.55;8.10;;;9.30;99.90;;;;;;5056862;28;20508;-75
2022/04/25 02:11:40;;;;;;;19.98;9.27;;;9.30;99.90;;;;;;5034331;28;20033;-77
2022/04/25 02:14:08;;;;;;;17.30;8.73;;;9.30;99.90;;;;;;5040830;28;20048;-76
2022/04/25 02:16:34;;;;;;;19.13;8.13;;;9.30;99.90;;;;;;5048334;28;20036;-77
2022/04/25 02:19:00;;;;;;;19.45;8.25;;;9.30;99.90;;;;;;5030201;28;20341;-75
2022/04/25 02:21:28;;;;;;;13.88;7.60;;;9.40;99.90;;;;;;5046090;28;20041;-74
2022/04/25 02:23:54;;;;;;;17.88;7.53;;;9.40;99.90;;;;;;5043214;28;20041;-75
2022/04/25 02:26:19;;;;;;;13.52;7.65;;;9.40;99.90;;;;;;5052906;28;20434;-75
2022/04/25 02:28:45;;;;;;;12.13;6.00;;;9.40;99.90;;;;;;5059730;28;20643;-75
2022/04/25 02:31:11;;;;;;;13.93;7.22;;;9.40;99.90;;;;;;5051759;28;20048;-75
2022/04/25 02:33:36;;;;;;;11.73;6.57;;;9.40;99.90;;;;;;5055847;28;20498;-75
2022/04/25 02:36:06;;;;;;;16.45;7.05;;;9.40;99.90;;;;;;5064899;28;20110;-75
2022/04/25 02:38:36;;;;;;;13.07;7.07;;;9.40;99.90;;;;;;5040540;28;20052;-75
2022/04/25 02:41:04;;;;;;;16.08;6.85;;;9.60;99.90;;;;;;5058256;28;20119;-77
2022/04/25 02:43:38;;;;;;;14.15;7.35;;;9.40;99.90;;;;;;5057803;28;20890;-78
2022/04/25 02:46:06;;;;;;;11.98;6.18;;;9.40;99.90;;;;;;5037081;28;20049;-75
2022/04/25 02:48:32;;;;;;;12.20;7.00;;;9.40;99.90;;;;;;5058100;28;20290;-75
2022/04/25 02:50:58;;;;;;;11.05;6.28;;;9.40;99.90;;;;;;5061290;28;20111;-75
2022/04/25 02:53:24;;;;;;;13.98;7.30;;;9.40;99.90;;;;;;5062402;28;20165;-75
2022/04/25 02:55:57;;;;;;;12.30;6.82;;;9.40;99.90;;;;;;5066496;28;20064;-75
2022/04/25 02:58:23;;;;;;;11.80;6.55;;;9.40;99.90;;;;;;5044401;28;20397;-75
2022/04/25 03:00:50;;;;;;;17.90;6.43;;;9.40;99.90;;;;;;5044851;28;20049;-75
2022/04/25 03:03:17;;;;;;;14.48;8.32;;;9.40;99.90;;;;;;5038556;28;20049;-75
2022/04/25 03:05:45;;;;;;;12.63;6.38;;;9.40;99.90;;;;;;5036882;28;20114;-75
2022/04/25 03:08:12;;;;;;;14.80;6.45;;;9.40;99.90;;;;;;5060079;28;20139;-74
2022/04/25 03:10:38;;;;;;;15.25;6.32;;;9.40;99.90;;;;;;5061636;28;20503;-74
2022/04/25 03:13:11;;;;;;;14.35;6.38;;;9.40;99.90;;;;;;5029952;28;20059;-74
2022/04/25 03:15:38;;;;;;;9.27;5.45;;;9.40;99.90;;;;;;5034098;28;20068;-75
2022/04/25 03:18:05;;;;;;;8.43;5.18;;;9.40;99.90;;;;;;5030214;28;20041;-75
2022/04/25 03:20:31;;;;;;;16.83;6.18;;;9.40;99.90;;;;;;5057408;28;20072;-78
2022/04/25 03:22:58;;;;;;;16.67;5.97;;;9.50;99.90;;;;;;5060452;28;20053;-78
2022/04/25 03:25:23;;;;;;;12.85;5.45;;;9.30;99.90;;;;;;5064645;28;20045;-78
2022/04/25 03:27:52;;;;;;;16.38;6.43;;;9.40;99.90;;;;;;5062978;28;20067;-77
2022/04/25 03:30:21;;;;;;;10.23;6.03;;;9.30;99.90;;;;;;5042542;28;20562;-77
2022/04/25 03:32:47;;;;;;;13.70;7.03;;;9.30;99.90;;;;;;5030053;28;20564;-77
2022/04/25 03:35:14;;;;;;;17.25;7.82;;;9.30;99.90;;;;;;5051924;28;20032;-77
2022/04/25 03:37:41;;;;;;;13.38;7.43;;;9.30;99.90;;;;;;5050350;28;20377;-78
2022/04/25 03:40:08;;;;;;;16.40;7.97;;;9.30;99.90;;;;;;5052576;28;20113;-77
2022/04/25 03:42:34;;;;;;;13.80;6.93;;;9.40;99.90;;;;;;5039808;28;20485;-78
2022/04/25 03:45:00;;;;;;;11.32;6.70;;;9.40;99.90;;;;;;5049831;28;20431;-78
2022/04/25 03:47:26;;;;;;;12.18;6.85;;;9.40;99.90;;;;;;5034110;28;20041;-77
2022/04/25 03:49:52;;;;;;;16.40;7.25;;;9.40;99.90;;;;;;5066419;28;20099;-75
2022/04/25 03:52:18;;;;;;;13.13;6.35;;;9.30;99.90;;;;;;5066062;28;20040;-74
2022/04/25 03:57:27;;;;;;;16.75;7.45;;;9.30;99.90;;;;;;5059971;28;20052;-77
2022/04/25 03:59:53;;;;;;;8.18;5.78;;;9.30;99.90;;;;;;5059627;28;20036;-77
2022/04/25 04:02:19;;;;;;;11.57;5.72;;;9.30;99.90;;;;;;5055484;28;20066;-77
2022/04/25 04:04:44;;;;;;;11.60;5.82;;;9.30;99.90;;;;;;5060153;28;20438;-77
2022/04/25 04:07:10;;;;;;;11.50;6.10;;;9.30;99.90;;;;;;5063881;28;20472;-75
2022/04/25 04:09:45;;;;;;;13.98;5.97;;;9.20;99.90;;;;;;5062475;28;20080;-75
2022/04/25 04:12:12;;;;;;;9.60;5.70;;;9.30;99.90;;;;;;5044577;28;20124;-75
2022/04/25 04:14:39;;;;;;;11.15;6.80;;;9.20;99.90;;;;;;5041471;28;20049;-75
2022/04/25 04:17:07;;;;;;;12.45;5.80;;;9.20;99.90;;;;;;5065202;28;20047;-77
2022/04/25 04:19:34;;;;;;;12.40;6.45;;;9.20;99.90;;;;;;5060498;28;20138;-75
2022/04/25 04:22:02;;;;;;;13.35;6.13;;;9.20;99.90;;;;;;5060654;28;20040;-75
2022/04/25 04:24:28;;;;;;;12.98;5.70;;;9.20;99.90;;;;;;5051873;28;20396;-75
2022/04/25 04:26:55;;;;;;;12.15;6.00;;;9.20;99.90;;;;;;5036836;28;20147;-77
2022/04/25 04:29:21;;;;;;;14.73;6.05;;;9.20;99.90;;;;;;5064611;28;20106;-75
2022/04/25 04:31:47;;;;;;;12.68;6.15;;;9.10;99.90;;;;;;5038892;28;20049;-77
2022/04/25 04:34:13;;;;;;;14.23;6.80;;;9.10;99.90;;;;;;5063096;28;20585;-75
2022/04/25 04:36:38;;;;;;;12.30;6.22;;;9.10;99.90;;;;;;5066845;28;20211;-75
2022/04/25 04:39:04;;;;;;;10.80;5.88;;;9.10;99.90;;;;;;5067512;28;20119;-75
2022/04/25 04:41:30;;;;;;;12.52;5.53;;;9.10;99.90;;;;;;5045524;28;20048;-74
2022/04/25 04:43:57;;;;;;;14.70;6.03;;;9.10;99.90;;;;;;5053866;28;20094;-75
2022/04/25 04:46:24;;;;;;;12.02;6.00;;;9.20;99.90;;;;;;5059985;28;20086;-76
2022/04/25 04:48:50;;;;;;;10.65;5.60;;;9.10;99.90;;;;;;5041759;28;20140;-75
2022/04/25 04:51:16;;;;;;;14.02;6.72;;;9.10;99.90;;;;;;5061985;28;20135;-75
2022/04/25 04:53:41;;;;;;;12.50;6.47;;;9.10;99.90;;;;;;5055000;28;20045;-75
2022/04/25 04:56:07;;;;;;;15.35;6.75;;;9.10;99.90;;;;;;5055780;28;20072;-75
2022/04/25 04:58:33;;;;;;;10.98;5.93;;;9.10;99.90;;;;;;5033331;28;20477;-77
2022/04/25 05:00:59;;;;;;;14.18;6.97;;;9.20;99.90;;;;;;5063374;28;20119;-76
2022/04/25 05:03:28;;;;;;;12.93;6.78;;;9.10;99.90;;;;;;5048718;28;20049;-75
2022/04/25 05:05:54;;;;;;;16.30;7.85;;;9.10;99.90;;;;;;5040253;28;20041;-75
2022/04/25 05:08:20;;;;;;;14.90;6.45;;;9.10;99.90;;;;;;5041033;28;20057;-75
2022/04/25 05:10:47;;;;;;;17.02;6.57;;;9.20;99.90;;;;;;5029011;28;20059;-75
2022/04/25 05:13:15;;;;;;;12.55;6.60;;;9.20;99.90;;;;;;5016183;28;20045;-75
2022/04/25 05:15:41;;;;;;;13.77;6.57;;;9.20;99.90;;;;;;5016522;28;20481;-75
2022/04/25 05:18:07;;;;;;;9.63;6.63;;;9.20;99.90;;;;;;5023973;28;20064;-75
2022/04/25 05:20:32;;;;;;;11.50;6.97;;;9.10;99.90;;;;;;5034117;28;20148;-74
2022/04/25 05:22:58;;;;;;;11.90;6.40;;;9.20;99.90;;;;;;5030221;28;20366;-75
2022/04/25 05:25:25;;;;;;;11.23;6.20;;;9.10;99.90;;;;;;5023636;28;20037;-75
2022/04/25 05:27:55;;;;;;;12.02;6.63;;;9.20;99.90;;;;;;5029925;28;20048;-75
2022/04/25 05:30:23;;;;;;;10.50;6.07;;;9.20;99.90;;;;;;5041013;28;20095;-76
2022/04/25 05:32:57;;;;;;;11.88;5.97;;;9.20;99.90;;;;;;5050627;28;20041;-75
2022/04/25 05:35:29;;;;;;;9.73;6.30;;;9.20;99.90;;;;;;5029011;28;20048;-75
2022/04/25 05:37:55;;;;;;;11.77;6.85;;;9.30;99.90;;;;;;5030977;28;20045;-75
2022/04/25 05:40:21;;;;;;;18.73;7.57;;;9.20;99.90;;;;;;5018873;28;20460;-75
2022/04/25 05:42:49;;;;;;;11.40;6.30;;;9.20;99.90;;;;;;5042008;28;20041;-75
2022/04/25 05:45:18;;;;;;;15.77;7.15;;;9.20;99.90;;;;;;5025532;28;20061;-75
2022/04/25 05:47:43;;;;;;;13.07;7.20;;;9.20;99.90;;;;;;5019701;28;20045;-77
2022/04/25 05:53:01;;;;;;;12.32;7.35;;;9.20;99.90;;;;;;5035858;28;20053;-75
2022/04/25 05:55:28;;;;;;;11.90;7.15;;;9.20;99.90;;;;;;5022123;28;20059;-75
2022/04/25 05:57:54;;;;;;;11.70;7.22;;;9.20;99.90;;;;;;5036700;28;20052;-75
2022/04/25 06:00:20;;;;;;;11.63;7.43;;;9.20;99.90;;;;;;5016999;28;20113;-75
2022/04/25 06:02:49;;;;;;;14.60;7.95;;;9.20;99.90;;;;;;5029677;28;20061;-75
2022/04/25 06:05:15;;;;;;;15.15;7.57;;;9.20;99.90;;;;;;5039198;28;20044;-76
2022/04/25 06:07:43;;;;;;;9.43;6.30;;;9.20;99.90;;;;;;5035475;28;20048;-76
2022/04/25 06:10:10;;;;;;;11.38;6.60;;;9.20;99.90;;;;;;5039990;28;20064;-75
2022/04/25 06:12:50;;;;;;;11.13;6.53;;;9.30;99.90;;;;;;5033510;28;20111;-76
2022/04/25 06:15:24;;;;;;;12.20;7.20;;;9.30;99.90;;;;;;5040066;28;20049;-77
2022/04/25 06:17:51;;;;;;;16.05;8.32;;;9.30;99.90;;;;;;5044462;28;20135;-76
2022/04/25 06:20:21;;;;;;;12.40;7.15;;;9.30;99.90;;;;;;5033245;28;20045;-75
2022/04/25 06:22:51;;;;;;;14.85;7.50;;;9.30;99.90;;;;;;5037065;28;20361;-75
2022/04/25 06:25:17;;;;;;;14.27;6.57;;;9.30;99.90;;;;;;5048934;28;20408;-76
2022/04/25 06:27:42;;;;;;;13.10;7.25;;;9.40;99.90;;;;;;5038084;28;20044;-76
2022/04/25 06:30:08;;;;;;;11.50;6.50;;;9.30;99.90;;;;;;5049880;28;20384;-77
2022/04/25 06:32:35;;;;;;;9.55;6.60;;;9.40;99.90;;;;;;5046711;28;20041;-76
2022/04/25 06:35:01;;;;;;;14.85;5.93;;;9.40;99.90;;;;;;5038048;28;20540;-75
2022/04/25 06:37:27;;;;;;;12.70;6.65;;;9.40;99.90;;;;;;5046270;28;20095;-75
2022/04/25 06:39:53;;;;;;;13.90;7.03;;;9.40;99.90;;;;;;5045945;28;20044;-77
2022/04/25 06:42:19;;;;;;;14.55;7.47;;;9.40;99.90;;;;;;5043032;28;20508;-77
2022/04/25 06:44:45;;;;;;;10.90;6.85;;;9.40;99.90;;;;;;5036831;28;20041;-76
2022/04/25 06:47:10;;;;;;;16.45;7.45;;;9.40;99.90;;;;;;5043650;28;20048;-76
2022/04/25 06:49:36;;;;;;;12.18;7.32;;;9.30;99.90;;;;;;5044340;28;20115;-76
2022/04/25 06:52:03;;;;;;;13.77;7.38;;;9.40;99.90;;;;;;5037130;28;20044;-76
2022/04/25 06:54:30;;;;;;;11.95;7.15;;;9.40;99.90;;;;;;5028748;28;20047;-79
2022/04/25 06:57:00;;;;;;;14.18;7.10;;;9.40;99.90;;;;;;5051829;28;20045;-79
2022/04/25 06:59:25;;;;;;;11.15;7.68;;;9.40;99.90;;;;;;5045343;28;20095;-78
2022/04/25 07:01:51;;;;;;;11.82;6.65;;;9.40;99.90;;;;;;5037921;28;20048;-80
2022/04/25 07:04:18;;;;;;;14.20;7.18;;;9.40;99.90;;;;;;5061271;28;20044;-80
2022/04/25 07:06:45;;;;;;;15.45;7.60;;;9.50;99.90;;;;;;5062424;28;20048;-79
2022/04/25 07:09:14;;;;;;;11.43;7.88;;;9.50;99.90;;;;;;5062695;28;20045;-81
2022/04/25 07:11:46;;;;;;;13.32;7.25;;;9.50;99.90;;;;;;5038745;28;20048;-79
2022/04/25 07:14:19;;;;;;;15.00;7.68;;;9.50;99.90;;;;;;5043054;28;20040;-79
2022/04/25 07:16:52;;;;;;;13.75;6.53;;;9.50;99.90;;;;;;5046918;28;20076;-79
2022/04/25 07:19:19;;;;;;;12.80;6.60;;;9.50;99.90;;;;;;5056728;28;20098;-77
2022/04/25 07:29:58;;;;;;;12.82;5.70;;;9.50;99.90;;;;;;5036013;28;20165;-77
2022/04/25 07:32:25;;;;;;;13.05;5.30;;;9.60;99.90;;;;;;5050922;28;20040;-78
2022/04/25 07:34:51;;;;;;;13.57;5.68;;;9.60;99.90;;;;;;5046261;28;20044;-77
2022/04/25 07:37:18;;;;;;;16.00;5.65;;;9.50;99.90;;;;;;5030464;28;20094;-78
2022/04/25 07:39:50;;;;;;;11.27;5.35;;;9.50;99.90;;;;;;5058001;28;20055;-78
2022/04/25 07:42:18;;;;;;;11.70;5.40;;;9.50;99.90;;;;;;5050496;28;20058;-78
2022/04/25 07:44:46;;;;;;;17.38;5.65;;;9.50;99.90;;;;;;5031470;28;20118;-78
2022/04/25 07:47:12;;;;;;;9.00;4.40;;;9.50;99.90;;;;;;5030438;28;20400;-79
2022/04/25 07:49:38;;;;;;;14.95;4.60;;;9.50;99.90;;;;;;5059847;28;20040;-78
2022/04/25 07:52:07;;;;;;;11.07;5.43;;;9.50;99.90;;;;;;5056220;28;20066;-78
2022/04/25 07:54:33;;;;;;;10.27;4.20;;;9.50;99.90;;;;;;5065273;28;20097;-78
2022/04/25 07:56:59;;;;;;;9.98;3.97;;;9.50;99.90;;;;;;5048839;28;20044;-77
2022/04/25 07:59:26;;;;;;;9.20;4.20;;;9.60;99.90;;;;;;5061086;28;20482;-79
2022/04/25 08:01:51;;;;;;;8.98;3.97;;;9.70;99.90;;;;;;5040013;28;20080;-79
2022/04/25 08:04:17;;;;;;;12.32;4.45;;;9.70;99.90;;;;;;5063313;28;20084;-78
2022/04/25 08:06:42;;;;;;;12.35;4.80;;;9.70;99.90;;;;;;5039919;28;20053;-77
2022/04/25 08:09:08;;;;;;;10.48;4.03;;;9.80;99.90;;;;;;5046526;28;20051;-78
2022/04/25 08:11:34;;;;;;;10.40;3.80;;;9.80;99.90;;;;;;5032676;28;20086;-78
2022/04/25 08:19:31;;;;;;;8.15;3.78;;;10.10;99.90;;;;;;5039106;28;20041;-77
2022/04/25 08:21:57;;;;;;;8.30;4.43;;;10.10;99.90;;;;;;5055766;28;20110;-79
2022/04/25 08:24:23;;;;;;;10.65;3.70;;;10.10;99.90;;;;;;5054407;28;20097;-80
2022/04/25 08:26:49;;;;;;;8.60;3.67;;;10.20;99.90;;;;;;5065566;28;20036;-79
2022/04/25 08:29:14;;;;;;;6.60;3.40;;;10.20;99.90;;;;;;5052234;28;20460;-78
2022/04/25 08:31:40;;;;;;;10.77;4.70;;;10.30;99.90;;;;;;5050632;28;20040;-78
2022/04/25 08:34:09;;;;;;;8.80;3.50;;;10.30;99.90;;;;;;5060504;28;20049;-78
2022/04/25 08:36:35;;;;;;;6.22;3.55;;;10.40;99.90;;;;;;5058394;28;20126;-78
2022/04/25 08:39:02;;;;;;;11.00;4.00;;;10.50;99.90;;;;;;5055717;28;20526;-78
2022/04/25 08:41:34;;;;;;;9.95;3.67;;;10.60;99.90;;;;;;5067023;28;20537;-78
2022/04/25 08:44:01;;;;;;;7.90;3.45;;;10.70;99.90;;;;;;5065542;28;20048;-79
2022/04/25 08:46:30;;;;;;;9.88;3.50;;;10.80;99.90;;;;;;5037163;28;20515;-78
2022/04/25 08:48:57;;;;;;;9.98;4.10;;;10.90;99.90;;;;;;5042365;28;20064;-79
2022/04/25 08:51:25;;;;;;;7.00;3.30;;;11.00;99.90;;;;;;5050862;28;20076;-79
2022/04/25 08:53:52;;;;;;;8.30;3.67;;;11.00;99.90;;;;;;5062469;28;20045;-78
2022/04/25 08:56:22;;;;;;;9.80;4.45;;;11.50;99.90;;;;;;5048522;28;20125;-77
2022/04/25 08:58:49;;;;;;;16.30;3.90;;;11.20;99.90;;;;;;5062905;28;20049;-81
2022/04/25 09:01:16;;;;;;;8.48;3.90;;;11.30;99.90;;;;;;5066897;28;20072;-80
2022/04/25 09:03:45;;;;;;;6.05;3.33;;;11.40;99.90;;;;;;5039585;28;20037;-78
2022/04/25 09:06:13;;;;;;;10.23;4.07;;;11.40;99.90;;;;;;5065541;28;20049;-78
2022/04/25 09:08:39;;;;;;;12.02;3.85;;;11.50;99.90;;;;;;5059272;28;20147;-82
2022/04/25 09:13:49;;;;;;;6.78;3.55;;;11.50;99.90;;;;;;5054619;28;20823;-78
2022/04/25 09:16:16;;;;;;;7.53;3.50;;;11.50;99.90;;;;;;5066210;28;20371;-79
2022/04/25 09:18:42;;;;;;;10.32;3.53;;;11.60;99.90;;;;;;5057781;28;20033;-83
2022/04/25 09:21:08;;;;;;;7.00;3.30;;;11.60;99.90;;;;;;5060971;28;20119;-79
2022/04/25 09:23:33;;;;;;;9.20;3.40;;;11.70;99.90;;;;;;5060397;28;20132;-78
2022/04/25 09:26:11;;;;;;;8.00;3.17;;;11.70;99.90;;;;;;5039730;28;20048;-79
2022/04/25 09:28:53;;;;;;;9.73;3.30;;;11.70;99.90;;;;;;5046092;28;20123;-81
2022/04/25 09:31:21;;;;;;;10.90;3.92;;;11.70;99.90;;;;;;5034727;28;20056;-81
2022/04/25 09:33:48;;;;;;;8.23;3.22;;;11.70;99.90;;;;;;5055098;28;20060;-80
2022/04/25 09:36:14;;;;;;;8.32;3.35;;;11.80;99.90;;;;;;5059586;28;20068;-81
2022/04/25 09:38:41;;;;;;;7.05;3.40;;;11.80;99.90;;;;;;5033114;28;20059;-79
2022/04/25 09:41:10;;;;;;;7.35;2.92;;;11.90;99.90;;;;;;5033083;28;20049;-79
2022/04/25 09:43:38;;;;;;;7.13;3.20;;;11.90;99.90;;;;;;5042997;28;20049;-81
2022/04/25 09:46:15;;;;;;;5.38;2.95;;;12.00;99.90;;;;;;5069781;28;20131;-78
2022/04/25 09:49:01;;;;;;;10.13;3.47;;;12.10;99.90;;;;;;5073278;28;20097;-80
2022/04/25 09:51:27;;;;;;;7.10;3.03;;;12.20;99.90;;;;;;5050483;28;20078;-78
2022/04/25 09:53:54;;;;;;;8.70;3.33;;;12.20;99.90;;;;;;5051439;28;20131;-77
2022/04/25 09:56:22;;;;;;;8.55;3.78;;;12.30;99.90;;;;;;5063885;28;20417;-79
2022/04/25 09:59:08;;;;;;;14.55;3.92;;;12.40;99.90;;;;;;5040167;28;20049;-74
2022/04/25 10:01:36;;;;;;;8.88;3.45;;;12.50;99.90;;;;;;5067044;28;20124;-74
2022/04/25 10:04:31;;;;;;;9.68;3.28;;;12.60;99.90;;;;;;5062688;28;20135;-74
2022/04/25 10:07:03;;;;;;;10.32;3.72;;;13.00;99.90;;;;;;5067922;28;20123;-74
2022/04/25 10:09:33;;;;;;;8.15;3.38;;;12.90;99.90;;;;;;5031276;28;20080;-75
2022/04/25 10:12:06;;;;;;;10.43;3.67;;;13.00;99.90;;;;;;5058552;28;20051;-75
2022/04/25 10:14:32;;;;;;;40.17;5.22;;;13.10;99.90;;;;;;5034897;28;20040;-75
2022/04/25 10:17:02;;;;;;;6.00;3.08;;;13.20;99.90;;;;;;5049878;28;20055;-74
2022/04/25 10:19:29;;;;;;;9.63;3.50;;;13.40;99.90;;;;;;5043679;28;20040;-76
2022/04/25 10:21:56;;;;;;;6.18;3.03;;;13.50;99.90;;;;;;5067830;28;20048;-75
2022/04/25 10:24:21;;;;;;;12.95;3.58;;;13.50;99.70;;;;;;5033902;28;20116;-74
2022/04/25 10:26:48;;;;;;;6.40;3.08;;;13.60;99.50;;;;;;5052508;28;20163;-74
2022/04/25 10:29:24;;;;;;;6.88;3.30;;;13.60;99.20;;;;;;5035079;28;20049;-74
2022/04/25 10:31:55;;;;;;;13.88;2.97;;;13.60;99.30;;;;;;5063676;28;20913;-75
2022/04/25 10:34:45;;;;;;;6.13;2.95;;;13.50;99.30;;;;;;5059681;28;20523;-74
2022/04/25 10:37:34;;;;;;;6.07;2.72;;;13.60;99.20;;;;;;5053595;28;20044;-75
2022/04/25 10:40:02;;;;;;;6.20;2.75;;;13.60;99.00;;;;;;5065530;28;20110;-75
2022/04/25 10:45:12;;;;;;;8.02;3.30;;;13.50;98.60;;;;;;5032108;28;20085;-74
2022/04/25 10:47:57;;;;;;;5.43;2.65;;;13.50;98.30;;;;;;5058587;28;20121;-74
2022/04/25 10:50:26;;;;;;;4.60;2.42;;;13.50;98.10;;;;;;5033376;28;20040;-75
2022/04/25 10:52:55;;;;;;;5.78;2.65;;;13.50;98.00;;;;;;5044070;28;20064;-74
2022/04/25 10:55:31;;;;;;;4.88;3.05;;;13.50;97.90;;;;;;5053363;28;20044;-74
2022/04/25 10:58:03;;;;;;;4.68;2.83;;;13.60;97.90;;;;;;5040768;28;20048;-75
2022/04/25 11:00:40;;;;;;;5.70;2.75;;;13.60;97.90;;;;;;5035397;28;20044;-74
2022/04/25 11:03:10;;;;;;;5.45;3.17;;;13.60;97.60;;;;;;5068692;28;20045;-74
2022/04/25 11:05:50;;;;;;;6.25;3.00;;;13.70;97.40;;;;;;5048479;28;20175;-74
2022/04/25 11:08:18;;;;;;;5.18;2.95;;;13.70;97.20;;;;;;5062271;28;20051;-74
2022/04/25 11:10:58;;;;;;;8.32;3.13;;;13.70;97.30;;;;;;5039046;28;20060;-75
2022/04/25 11:13:32;;;;;;;4.18;2.70;;;13.70;97.40;;;;;;5058799;28;20051;-79
2022/04/25 11:16:21;;;;;;;6.68;2.95;;;13.70;97.30;;;;;;5035403;28;20057;-74
2022/04/25 11:19:07;;;;;;;7.30;2.92;;;13.80;97.10;;;;;;5032307;28;20138;-74
2022/04/25 11:21:33;;;;;;;8.50;3.70;;;13.80;97.10;;;;;;5061236;28;20041;-75
2022/04/25 11:24:01;;;;;;;5.45;3.30;;;13.80;97.10;;;;;;5044438;28;20056;-75
2022/04/25 11:26:30;;;;;;;6.95;3.05;;;13.90;97.10;;;;;;5043488;28;20084;-75
2022/04/25 11:28:57;;;;;;;6.65;3.03;;;13.90;96.90;;;;;;5034298;28;20048;-75
2022/04/25 11:31:27;;;;;;;6.22;2.85;;;13.90;96.70;;;;;;5048694;28;20051;-74
2022/04/25 11:33:56;;;;;;;7.38;2.75;;;13.90;96.70;;;;;;5040481;28;20511;-74
2022/04/25 11:36:23;;;;;;;9.30;3.90;;;13.90;96.90;;;;;;5067821;28;20464;-74
2022/04/25 11:41:36;;;;;;;9.50;3.60;;;14.10;97.40;;;;;;5034677;28;20373;-75
2022/04/25 11:44:04;;;;;;;7.03;3.80;;;14.00;97.60;;;;;;5038198;28;20378;-74
2022/04/25 11:46:32;;;;;;;16.30;3.63;;;14.00;97.70;;;;;;5068832;28;20040;-74
2022/04/25 11:48:58;;;;;;;9.95;3.63;;;14.00;97.80;;;;;;5067509;28;20051;-73
2022/04/25 11:51:29;;;;;;;11.38;4.40;;;14.00;97.50;;;;;;5049888;28;20093;-74
2022/04/25 11:54:06;;;;;;;11.45;3.50;;;13.90;97.70;;;;;;5036642;28;20120;-74
2022/04/25 11:56:34;;;;;;;13.48;4.13;;;13.90;97.90;;;;;;5052503;28;20154;-75
2022/04/25 11:59:05;;;;;;;7.90;3.50;;;13.90;98.00;;;;;;5029243;28;20053;-74
2022/04/25 12:01:48;;;;;;;11.90;3.75;;;13.90;98.00;;;;;;5047912;28;20053;-74
2022/04/25 12:04:20;;;;;;;7.50;4.10;;;13.90;98.00;;;;;;5058395;28;20044;-74
2022/04/25 12:06:58;;;;;;;9.05;4.20;;;13.90;97.80;;;;;;5067854;28;20492;-75
2022/04/25 12:17:46;;;;;;;6.93;4.15;;;14.00;97.70;;;;;;5051448;28;20092;-74
2022/04/25 12:20:15;;;;;;;9.60;3.90;;;14.00;97.70;;;;;;5077128;28;20124;-73
2022/04/25 12:22:55;;;;;;;13.05;3.97;;;13.90;97.50;;;;;;5055828;28;20499;-75
2022/04/25 12:25:23;;;;;;;14.30;4.28;;;14.00;97.20;;;;;;5038154;28;20116;-74
2022/04/25 12:28:14;;;;;;;9.75;3.80;;;14.10;97.20;;;;;;5046089;28;20056;-74
2022/04/25 12:31:04;;;;;;;12.07;4.22;;;14.20;97.70;;;;;;5068222;28;20048;-74
2022/04/25 12:33:47;;;;;;;7.32;3.85;;;14.40;97.80;;;;;;5044388;28;20144;-73
2022/04/25 12:36:27;;;;;;;7.93;3.92;;;14.60;97.30;;;;;;5048890;28;20131;-74
2022/04/25 12:38:57;;;;;;;5.93;3.78;;;14.70;97.40;;;;;;5035257;28;20048;-74
2022/04/25 12:41:28;;;;;;;9.88;3.35;;;14.90;96.90;;;;;;5051385;28;20080;-74
2022/04/25 12:43:56;;;;;;;9.45;4.13;;;14.90;96.60;;;;;;5053790;28;20037;-74
2022/04/25 12:46:42;;;;;;;9.40;3.83;;;14.90;96.50;;;;;;5059595;28;20067;-73
2022/04/25 12:49:11;;;;;;;10.25;3.95;;;14.90;96.20;;;;;;5059061;28;20049;-75
2022/04/25 12:51:38;;;;;;;13.40;4.40;;;14.90;96.00;;;;;;5055601;28;20132;-74
2022/04/25 12:54:25;;;;;;;7.93;3.65;;;14.90;95.80;;;;;;5031984;28;20051;-73
2022/04/25 12:57:16;;;;;;;6.85;4.32;;;14.90;96.00;;;;;;5036653;28;20057;-75
2022/04/25 12:59:58;;;;;;;11.32;3.63;;;14.90;96.40;;;;;;5041323;28;20052;-73
2022/04/25 13:02:26;;;;;;;8.48;3.97;;;15.20;96.30;;;;;;5050765;28;20073;-73
2022/04/25 13:04:56;;;;;;;7.20;3.47;;;15.30;95.80;;;;;;5046871;28;20135;-76
2022/04/25 13:07:45;;;;;;;12.30;3.75;;;15.50;95.30;;;;;;5045116;28;20045;-73
2022/04/25 13:10:18;;;;;;;6.20;3.80;;;15.70;94.90;;;;;;5051503;28;20400;-74
2022/04/25 13:12:46;;;;;;;12.35;4.45;;;15.80;95.10;;;;;;5049643;28;20037;-74
2022/04/25 13:15:17;;;;;;;9.88;3.60;;;16.00;95.10;;;;;;5032594;28;20085;-75
2022/04/25 13:17:43;;;;;;;8.13;3.55;;;16.30;95.30;;;;;;5054403;28;20154;-74
2022/04/25 13:20:12;;;;;;;9.90;4.10;;;16.70;95.40;;;;;;5052469;28;20109;-74
2022/04/25 13:22:38;;;;;;;14.02;3.83;;;16.90;94.80;;;;;;5031157;28;20076;-74
2022/04/25 13:25:06;;;;;;;8.20;3.55;;;17.10;94.20;;;;;;5062365;28;20040;-74
2022/04/25 13:27:33;;;;;;;10.95;4.47;;;17.30;93.50;;;;;;5033949;28;20783;-74
2022/04/25 13:29:58;;;;;;;7.53;4.47;;;17.40;93.00;;;;;;5055713;28;20040;-73
2022/04/25 13:32:24;;;;;;;12.27;4.20;;;17.70;92.50;;;;;;5036026;28;20048;-74